createdAt,value
2022-08-23T00:00:49.063Z,97933.44
2022-08-23T00:05:52.035Z,97938.84
2022-08-23T00:10:53.383Z,97942.13
2022-08-23T00:15:55.085Z,97947.53
2022-08-23T00:20:57.085Z,97943.78
2022-08-23T00:26:01.687Z,97935.06
2022-08-23T00:31:03.390Z,97942.00
2022-08-23T00:36:04.803Z,97932.22
2022-08-23T00:41:06.206Z,97928.34
2022-08-23T00:46:41.519Z,97935.66
2022-08-23T00:51:57.399Z,97935.66
2022-08-23T00:57:00.077Z,97934.00
2022-08-23T01:02:02.117Z,97923.28
2022-08-23T01:07:06.037Z,97925.06
2022-08-23T01:12:07.443Z,97918.84
2022-08-23T01:17:12.573Z,97910.81
2022-08-23T01:22:21.761Z,97921.19
2022-08-23T01:27:23.285Z,97914.72
2022-08-23T01:32:25.639Z,97915.28
2022-08-23T01:37:27.144Z,97919.13
2022-08-23T01:42:28.882Z,97922.66
2022-08-23T01:47:31.661Z,97932.34
2022-08-23T01:52:34.622Z,97930.34
2022-08-23T01:57:36.150Z,97926.22
2022-08-23T02:02:40.634Z,97924.09
2022-08-23T02:07:42.453Z,97933.63
2022-08-23T02:12:44.220Z,97926.94
2022-08-23T02:17:48.868Z,97932.81
2022-08-23T02:22:50.224Z,97932.44
2022-08-23T02:27:51.596Z,97926.31
2022-08-23T02:32:52.987Z,97933.63
2022-08-23T02:37:55.220Z,97931.75
2022-08-23T02:42:56.817Z,97935.69
2022-08-23T02:47:58.606Z,97937.13
2022-08-23T02:53:05.388Z,97925.00
2022-08-23T02:58:08.197Z,97924.19
2022-08-23T03:03:09.853Z,97925.00
2022-08-23T03:08:11.733Z,97927.97
2022-08-23T03:13:21.058Z,97928.31
2022-08-23T03:18:24.371Z,97930.81
2022-08-23T03:23:26.910Z,97939.59
2022-08-23T03:28:29.140Z,97933.13
2022-08-23T03:33:30.473Z,97935.97
2022-08-23T03:38:32.117Z,97938.47
2022-08-23T03:43:34.155Z,97946.47
2022-08-23T03:48:35.659Z,97938.38
2022-08-23T03:53:37.109Z,97955.34
2022-08-23T03:58:39.704Z,97953.00
2022-08-23T04:03:41.513Z,97961.09
2022-08-23T04:08:43.669Z,97959.47
2022-08-23T04:13:45.057Z,97959.19
2022-08-23T04:18:46.946Z,97966.41
2022-08-23T04:23:50.749Z,97967.47
2022-08-23T04:28:52.693Z,97972.28
2022-08-23T04:33:58.803Z,97970.47
2022-08-23T04:39:02.723Z,97973.19
2022-08-23T04:44:05.519Z,97978.13
2022-08-23T04:49:07.802Z,97983.53
2022-08-23T04:54:09.566Z,97974.84
2022-08-23T04:59:37.208Z,97985.66
2022-08-23T05:04:38.811Z,97983.53
2022-08-23T05:09:40.281Z,97985.22
2022-08-23T05:14:41.725Z,97990.16
2022-08-23T05:19:49.232Z,97988.03
2022-08-23T05:24:50.616Z,97991.34
2022-08-23T05:29:54.244Z,97986.19
2022-08-23T05:34:55.759Z,97997.19
2022-08-23T05:39:57.202Z,98006.38
2022-08-23T05:44:59.836Z,98009.06
2022-08-23T05:50:01.781Z,98008.47
2022-08-23T05:55:07.348Z,98015.13
2022-08-23T06:00:15.503Z,98023.59
2022-08-23T06:05:29.348Z,98021.88
2022-08-23T06:10:36.705Z,98021.41
2022-08-23T06:15:51.461Z,98027.44
2022-08-23T06:21:01.021Z,98024.94
2022-08-23T06:26:14.907Z,98034.72
2022-08-23T06:31:39.169Z,98029.06
2022-08-23T06:36:44.757Z,98033.22
2022-08-23T06:42:01.518Z,98026.88
2022-08-23T06:47:05.651Z,98024.78
2022-08-23T06:52:09.173Z,98038.44
2022-08-23T06:57:25.101Z,98034.44
2022-08-23T07:02:52.247Z,98041.88
2022-08-23T07:08:12.068Z,98042.81
2022-08-23T07:13:18.374Z,98048.72
2022-08-23T07:18:20.590Z,98058.41
2022-08-23T07:23:23.229Z,98059.81
2022-08-23T07:28:25.064Z,98067.91
2022-08-23T07:33:26.881Z,98062.06
2022-08-23T07:38:39.826Z,98070.31
2022-08-23T07:43:42.063Z,98081.47
2022-08-23T07:48:53.963Z,98074.78
2022-08-23T07:54:04.031Z,98064.13
2022-08-23T07:59:06.836Z,98071.19
2022-08-23T08:04:12.552Z,98071.34
2022-08-23T08:09:16.798Z,98080.78
2022-08-23T08:14:18.750Z,98079.84
2022-08-23T08:19:26.339Z,98082.09
2022-08-23T08:24:57.620Z,98085.13
2022-08-23T08:29:59.112Z,98086.31
2022-08-23T08:35:00.534Z,98078.56
2022-08-23T08:40:03.528Z,98079.50
2022-08-23T08:45:37.359Z,98083.50
2022-08-23T08:50:41.372Z,98081.75
2022-08-23T08:55:49.332Z,98085.50
2022-08-23T09:00:56.492Z,98084.56
2022-08-23T09:06:16.079Z,98079.94
2022-08-23T09:11:17.514Z,98087.72
2022-08-23T09:16:32.647Z,98088.66
2022-08-23T09:21:45.865Z,98087.91
2022-08-23T09:26:47.674Z,98087.44
2022-08-23T09:31:53.951Z,98095.56
2022-08-23T09:37:17.735Z,98096.75
2022-08-23T09:42:27.540Z,98094.72
2022-08-23T09:47:44.380Z,98095.00
2022-08-23T09:52:47.773Z,98094.63
2022-08-23T09:57:49.459Z,98098.72
2022-08-23T10:02:57.512Z,98097.91
2022-08-23T10:08:02.982Z,98092.09
2022-08-23T10:13:06.339Z,98095.97
2022-08-23T10:18:19.590Z,98096.66
2022-08-23T10:23:41.485Z,98103.06
2022-08-23T10:29:09.795Z,98103.38
2022-08-23T10:34:30.153Z,98104.53
2022-08-23T10:39:32.563Z,98108.28
2022-08-23T10:44:35.925Z,98103.47
2022-08-23T10:49:40.218Z,98112.53
2022-08-23T10:54:48.970Z,98107.53
2022-08-23T10:59:56.135Z,98108.97
2022-08-23T11:05:03.916Z,98108.81
2022-08-23T11:10:26.704Z,98120.16
2022-08-23T11:15:37.200Z,98112.88
2022-08-23T11:20:49.825Z,98108.97
2022-08-23T11:25:56.068Z,98114.41
2022-08-23T11:30:57.693Z,98116.91
2022-08-23T11:36:09.178Z,98112.06
2022-08-23T11:41:21.018Z,98116.56
2022-08-23T11:46:25.777Z,98115.06
2022-08-23T11:51:37.292Z,98119.09
2022-08-23T11:56:38.674Z,98120.81
2022-08-23T12:01:40.661Z,98120.81
2022-08-23T12:06:55.775Z,98124.63
2022-08-23T12:11:57.102Z,98128.59
2022-08-23T12:17:03.635Z,98131.97
2022-08-23T12:22:07.768Z,98130.41
2022-08-23T12:27:14.878Z,98140.31
2022-08-23T12:32:21.154Z,98133.53
2022-08-23T12:37:34.020Z,98128.44
2022-08-23T12:42:37.067Z,98127.44
2022-08-23T12:47:43.122Z,98126.09
2022-08-23T12:52:55.335Z,98124.16
2022-08-23T12:57:58.079Z,98129.56
2022-08-23T13:03:12.127Z,98122.00
2022-08-23T13:08:19.778Z,98122.00
2022-08-23T13:13:28.844Z,98127.94
2022-08-23T13:18:41.119Z,98133.94
2022-08-23T13:23:42.452Z,98135.00
2022-08-23T13:28:59.366Z,98132.88
2022-08-23T13:34:00.725Z,98131.81
2022-08-23T13:39:05.687Z,98129.31
2022-08-23T13:44:08.344Z,98132.88
2022-08-23T13:49:17.732Z,98130.72
2022-08-23T13:54:19.165Z,98123.16
2022-08-23T13:59:38.214Z,98134.53
2022-08-23T14:04:40.242Z,98132.28
2022-08-23T14:09:42.420Z,98130.06
2022-08-23T14:14:44.750Z,98127.94
2022-08-23T14:25:08.967Z,98123.75
2022-08-23T14:30:12.015Z,98126.00
2022-08-23T14:35:13.375Z,98119.00
2022-08-23T14:40:15.410Z,98118.00
2022-08-23T14:45:17.460Z,98123.00
2022-08-23T14:50:18.860Z,98126.03
2022-08-23T14:55:24.741Z,98120.41
2022-08-23T15:00:26.628Z,98126.66
2022-08-23T15:05:28.015Z,98117.56
2022-08-23T15:15:51.117Z,98124.69
2022-08-23T15:20:52.686Z,98128.25
2022-08-23T15:25:54.722Z,98124.97
2022-08-23T15:30:56.183Z,98125.16
2022-08-23T15:35:57.846Z,98125.78
2022-08-23T15:41:00.434Z,98120.91
2022-08-23T15:46:09.156Z,98114.59
2022-08-23T15:51:10.943Z,98113.75
2022-08-23T15:56:20.288Z,98105.66
2022-08-23T16:01:24.709Z,98103.50
2022-08-23T16:06:27.304Z,98101.66
2022-08-23T16:11:28.638Z,98094.91
2022-08-23T16:16:33.154Z,98096.03
2022-08-23T16:21:34.606Z,98097.16
2022-08-23T16:26:38.706Z,98096.53
2022-08-23T16:31:43.506Z,98096.47
2022-08-23T16:36:46.637Z,98098.56
2022-08-23T16:41:47.960Z,98097.56
2022-08-23T16:46:51.594Z,98108.75
2022-08-23T16:51:53.015Z,98103.94
2022-08-23T16:56:54.478Z,98105.47
2022-08-23T17:01:58.302Z,98100.16
2022-08-23T17:06:59.878Z,98108.66
2022-08-23T17:12:02.146Z,98114.56
2022-08-23T17:17:03.544Z,98113.78
2022-08-23T17:22:04.926Z,98115.56
2022-08-23T17:27:06.893Z,98118.16
2022-08-23T17:32:09.733Z,98123.19
2022-08-23T17:37:19.124Z,98109.97
2022-08-23T17:42:21.313Z,98119.03
2022-08-23T17:47:22.716Z,98121.91
2022-08-23T17:52:26.181Z,98129.13
2022-08-23T17:57:27.549Z,98139.06
2022-08-23T18:02:31.671Z,98144.88
2022-08-23T18:07:33.153Z,98160.97
2022-08-23T18:12:34.597Z,98169.50
2022-08-23T18:17:38.645Z,98177.25
2022-08-23T18:22:40.166Z,98180.94
2022-08-23T18:28:00.328Z,98178.16
2022-08-23T18:33:02.118Z,98185.06
2022-08-23T18:38:03.512Z,98182.28
2022-08-23T18:43:05.069Z,98187.38
2022-08-23T18:48:06.408Z,98190.03
2022-08-23T18:53:07.934Z,98200.78
2022-08-23T18:58:09.345Z,98211.22
2022-08-23T19:03:12.165Z,98215.50
2022-08-23T19:08:13.993Z,98217.59
2022-08-23T19:13:16.521Z,98223.66
2022-08-23T19:18:17.824Z,98225.75
2022-08-23T19:23:21.241Z,98234.97
2022-08-23T19:28:23.831Z,98233.34
2022-08-23T19:33:25.210Z,98233.34
2022-08-23T19:38:27.739Z,98239.59
2022-08-23T19:43:29.168Z,98243.94
2022-08-23T19:48:33.044Z,98245.25
2022-08-23T19:53:34.979Z,98250.94
2022-08-23T19:58:36.373Z,98247.63
2022-08-23T20:03:37.699Z,98252.50
2022-08-23T20:08:39.195Z,98254.03
2022-08-23T20:13:41.141Z,98252.63
2022-08-23T20:18:43.097Z,98253.38
2022-08-23T20:24:03.683Z,98255.50
2022-08-23T20:29:05.466Z,98250.81
2022-08-23T20:34:08.352Z,98247.50
2022-08-23T20:39:10.742Z,98258.63
2022-08-23T20:44:12.125Z,98249.06
2022-08-23T20:49:13.461Z,98253.91
2022-08-23T20:54:14.841Z,98257.09
2022-08-23T20:59:16.567Z,98249.44
2022-08-23T21:04:18.719Z,98259.13
2022-08-23T21:09:22.500Z,98253.59
2022-08-23T21:14:24.453Z,98262.22
2022-08-23T21:19:25.884Z,98262.22
2022-08-23T21:24:27.280Z,98257.84
2022-08-23T21:29:28.601Z,98258.94
2022-08-23T21:34:29.992Z,98256.09
2022-08-23T21:39:31.353Z,98254.94
2022-08-23T21:44:32.681Z,98258.69
2022-08-23T21:49:35.077Z,98247.50
2022-08-23T21:54:39.207Z,98243.38
2022-08-23T21:59:44.223Z,98246.81
2022-08-23T22:04:45.763Z,98243.13
2022-08-23T22:09:47.241Z,98236.53
2022-08-23T22:14:48.612Z,98238.66
2022-08-23T22:19:51.097Z,98235.94
2022-08-23T22:24:53.931Z,98233.22
2022-08-23T22:29:55.470Z,98231.59
2022-08-23T22:34:58.150Z,98231.25
2022-08-23T22:39:59.530Z,98228.06
2022-08-23T22:45:01.138Z,98224.19
2022-08-23T22:50:03.481Z,98221.09
2022-08-23T22:55:05.283Z,98220.75
2022-08-23T23:00:11.181Z,98223.94
2022-08-23T23:05:12.770Z,98225.00
2022-08-23T23:10:15.060Z,98218.44
2022-08-23T23:15:16.426Z,98219.47
2022-08-23T23:20:36.585Z,98226.22
2022-08-23T23:25:37.987Z,98224.78
2022-08-23T23:30:39.422Z,98234.34
2022-08-23T23:35:42.655Z,98222.66
2022-08-23T23:40:44.225Z,98216.88
2022-08-23T23:45:45.657Z,98219.84
2022-08-23T23:50:47.100Z,98220.78
2022-08-23T23:55:48.721Z,98220.91
